sensor_id;sensor_type;location;lat;lon;timestamp;temperature;humidity
20366;DHT22;10341;49.894;8.822;2024-01-10T00:01:38;-5.90;99.90
20366;DHT22;10341;49.894;8.822;2024-01-10T00:06:57;-5.90;99.90
20366;DHT22;10341;49.894;8.822;2024-01-10T00:12:17;-5.80;99.90
20366;DHT22;10341;49.894;8.822;2024-01-10T00:17:36;-5.70;99.90
20366;DHT22;10341;49.894;8.822;2024-01-10T00:22:56;-5.70;99.90
20366;DHT22;10341;49.894;8.822;2024-01-10T00:28:16;-5.70;99.90
20366;DHT22;10341;49.894;8.822;2024-01-10T00:33:39;-5.70;99.90
20366;DHT22;10341;49.894;8.822;2024-01-10T00:38:58;-5.70;99.90
20366;DHT22;10341;49.894;8.822;2024-01-10T00:44:18;-5.80;99.90
20366;DHT22;10341;49.894;8.822;2024-01-10T00:49:37;-5.90;99.90
20366;DHT22;10341;49.894;8.822;2024-01-10T00:54:57;-6.00;99.90
20366;DHT22;10341;49.894;8.822;2024-01-10T01:00:16;-6.10;99.90
20366;DHT22;10341;49.894;8.822;2024-01-10T01:05:36;-6.10;99.90
20366;DHT22;10341;49.894;8.822;2024-01-10T01:10:55;-6.20;99.90
20366;DHT22;10341;49.894;8.822;2024-01-10T01:16:15;-6.20;99.90
20366;DHT22;10341;49.894;8.822;2024-01-10T01:21:35;-6.20;99.90
20366;DHT22;10341;49.894;8.822;2024-01-10T01:26:54;-6.10;99.90
20366;DHT22;10341;49.894;8.822;2024-01-10T01:32:13;-6.10;99.90
20366;DHT22;10341;49.894;8.822;2024-01-10T01:37:32;-6.20;99.90
20366;DHT22;10341;49.894;8.822;2024-01-10T01:42:52;-6.20;99.90
20366;DHT22;10341;49.894;8.822;2024-01-10T01:48:13;-6.30;99.90
20366;DHT22;10341;49.894;8.822;2024-01-10T01:53:34;-6.40;99.90
20366;DHT22;10341;49.894;8.822;2024-01-10T01:58:54;-6.40;99.90
20366;DHT22;10341;49.894;8.822;2024-01-10T02:04:14;-6.50;99.90
20366;DHT22;10341;49.894;8.822;2024-01-10T02:09:33;-6.50;99.90
20366;DHT22;10341;49.894;8.822;2024-01-10T02:14:52;-6.50;99.90
20366;DHT22;10341;49.894;8.822;2024-01-10T02:20:13;-6.50;99.90
20366;DHT22;10341;49.894;8.822;2024-01-10T02:25:32;-6.60;99.90
20366;DHT22;10341;49.894;8.822;2024-01-10T02:30:52;-6.60;99.90
20366;DHT22;10341;49.894;8.822;2024-01-10T02:36:13;-6.60;99.90
20366;DHT22;10341;49.894;8.822;2024-01-10T02:41:32;-6.60;99.90
20366;DHT22;10341;49.894;8.822;2024-01-10T02:46:51;-6.60;99.90
20366;DHT22;10341;49.894;8.822;2024-01-10T02:52:11;-6.50;99.90
20366;DHT22;10341;49.894;8.822;2024-01-10T02:57:32;-6.50;99.90
20366;DHT22;10341;49.894;8.822;2024-01-10T03:02:51;-6.50;99.90
20366;DHT22;10341;49.894;8.822;2024-01-10T03:08:11;-6.50;99.90
20366;DHT22;10341;49.894;8.822;2024-01-10T03:13:31;-6.50;99.90
20366;DHT22;10341;49.894;8.822;2024-01-10T03:18:50;-6.50;99.90
20366;DHT22;10341;49.894;8.822;2024-01-10T03:24:09;-6.50;99.90
20366;DHT22;10341;49.894;8.822;2024-01-10T03:29:29;-6.40;99.90
20366;DHT22;10341;49.894;8.822;2024-01-10T03:34:48;-6.20;99.90
20366;DHT22;10341;49.894;8.822;2024-01-10T03:40:11;-6.00;99.90
20366;DHT22;10341;49.894;8.822;2024-01-10T03:45:31;-6.10;99.90
20366;DHT22;10341;49.894;8.822;2024-01-10T03:50:50;-6.10;99.90
20366;DHT22;10341;49.894;8.822;2024-01-10T03:56:10;-6.00;99.90
20366;DHT22;10341;49.894;8.822;2024-01-10T04:01:30;-6.00;99.90
20366;DHT22;10341;49.894;8.822;2024-01-10T04:06:49;-6.00;99.90
20366;DHT22;10341;49.894;8.822;2024-01-10T04:12:09;-6.00;99.90
20366;DHT22;10341;49.894;8.822;2024-01-10T04:17:28;-6.10;99.90
20366;DHT22;10341;49.894;8.822;2024-01-10T04:22:47;-6.00;99.90
20366;DHT22;10341;49.894;8.822;2024-01-10T04:28:07;-6.10;99.90
20366;DHT22;10341;49.894;8.822;2024-01-10T04:33:27;-6.00;99.90
20366;DHT22;10341;49.894;8.822;2024-01-10T04:38:46;-6.00;99.90
20366;DHT22;10341;49.894;8.822;2024-01-10T04:44:06;-6.10;99.90
20366;DHT22;10341;49.894;8.822;2024-01-10T04:49:26;-6.00;99.90
20366;DHT22;10341;49.894;8.822;2024-01-10T04:54:45;-6.00;99.90
20366;DHT22;10341;49.894;8.822;2024-01-10T05:00:05;-6.10;99.90
20366;DHT22;10341;49.894;8.822;2024-01-10T05:05:26;-6.10;99.90
20366;DHT22;10341;49.894;8.822;2024-01-10T05:10:46;-6.10;99.90
20366;DHT22;10341;49.894;8.822;2024-01-10T05:16:05;-6.10;99.90
20366;DHT22;10341;49.894;8.822;2024-01-10T05:21:24;-6.10;99.90
20366;DHT22;10341;49.894;8.822;2024-01-10T05:26:45;-6.10;99.90
20366;DHT22;10341;49.894;8.822;2024-01-10T05:32:04;-6.10;99.90
20366;DHT22;10341;49.894;8.822;2024-01-10T05:37:25;-6.10;99.90
20366;DHT22;10341;49.894;8.822;2024-01-10T05:42:44;-6.10;99.90
20366;DHT22;10341;49.894;8.822;2024-01-10T05:48:04;-6.10;99.90
20366;DHT22;10341;49.894;8.822;2024-01-10T05:53:24;-6.00;99.90
20366;DHT22;10341;49.894;8.822;2024-01-10T05:58:44;-6.00;99.90
20366;DHT22;10341;49.894;8.822;2024-01-10T06:04:03;-6.10;99.90
20366;DHT22;10341;49.894;8.822;2024-01-10T06:09:22;-6.10;99.90
20366;DHT22;10341;49.894;8.822;2024-01-10T06:14:42;-6.20;99.90
20366;DHT22;10341;49.894;8.822;2024-01-10T06:20:01;-6.30;99.90
20366;DHT22;10341;49.894;8.822;2024-01-10T06:25:22;-6.40;99.90
20366;DHT22;10341;49.894;8.822;2024-01-10T06:30:42;-6.40;99.90
20366;DHT22;10341;49.894;8.822;2024-01-10T06:36:02;-6.50;99.90
20366;DHT22;10341;49.894;8.822;2024-01-10T06:41:22;-6.50;99.90
20366;DHT22;10341;49.894;8.822;2024-01-10T06:46:45;-6.60;99.90
20366;DHT22;10341;49.894;8.822;2024-01-10T06:52:04;-6.60;99.90
20366;DHT22;10341;49.894;8.822;2024-01-10T06:57:26;-6.60;99.90
20366;DHT22;10341;49.894;8.822;2024-01-10T07:02:45;-6.50;99.90
20366;DHT22;10341;49.894;8.822;2024-01-10T07:08:05;-6.40;99.90
20366;DHT22;10341;49.894;8.822;2024-01-10T07:13:24;-6.30;99.90
20366;DHT22;10341;49.894;8.822;2024-01-10T07:18:44;-6.30;99.90
20366;DHT22;10341;49.894;8.822;2024-01-10T07:24:05;-6.30;99.90
20366;DHT22;10341;49.894;8.822;2024-01-10T07:29:24;-6.30;99.90
20366;DHT22;10341;49.894;8.822;2024-01-10T07:34:44;-6.20;99.90
20366;DHT22;10341;49.894;8.822;2024-01-10T07:40:04;-6.10;99.90
20366;DHT22;10341;49.894;8.822;2024-01-10T07:45:25;-6.10;99.90
20366;DHT22;10341;49.894;8.822;2024-01-10T07:50:44;-6.00;99.90
20366;DHT22;10341;49.894;8.822;2024-01-10T07:56:04;-5.90;99.90
20366;DHT22;10341;49.894;8.822;2024-01-10T08:01:23;-5.60;99.90
20366;DHT22;10341;49.894;8.822;2024-01-10T08:06:42;-5.00;99.90
20366;DHT22;10341;49.894;8.822;2024-01-10T08:12:05;-4.20;99.90
20366;DHT22;10341;49.894;8.822;2024-01-10T08:17:25;-3.30;99.90
20366;DHT22;10341;49.894;8.822;2024-01-10T08:22:45;-2.30;99.90
20366;DHT22;10341;49.894;8.822;2024-01-10T08:28:04;-1.70;99.90
20366;DHT22;10341;49.894;8.822;2024-01-10T08:33:24;-0.80;99.90
20366;DHT22;10341;49.894;8.822;2024-01-10T08:38:43;-0.30;99.90
20366;DHT22;10341;49.894;8.822;2024-01-10T08:44:02;-0.60;99.90
20366;DHT22;10341;49.894;8.822;2024-01-10T08:49:22;-1.10;99.90
20366;DHT22;10341;49.894;8.822;2024-01-10T08:54:41;-1.50;99.90
20366;DHT22;10341;49.894;8.822;2024-01-10T09:00:01;-2.00;99.90
20366;DHT22;10341;49.894;8.822;2024-01-10T09:05:20;-2.10;99.90
20366;DHT22;10341;49.894;8.822;2024-01-10T09:10:40;-2.00;99.90
20366;DHT22;10341;49.894;8.822;2024-01-10T09:16:00;-2.10;99.90
20366;DHT22;10341;49.894;8.822;2024-01-10T09:21:20;-1.90;99.90
20366;DHT22;10341;49.894;8.822;2024-01-10T09:26:40;-1.90;99.90
20366;DHT22;10341;49.894;8.822;2024-01-10T09:32:00;-1.90;99.90
20366;DHT22;10341;49.894;8.822;2024-01-10T09:37:19;-1.90;99.90
20366;DHT22;10341;49.894;8.822;2024-01-10T09:42:38;-1.80;99.90
20366;DHT22;10341;49.894;8.822;2024-01-10T09:47:59;-1.60;99.90
20366;DHT22;10341;49.894;8.822;2024-01-10T09:53:23;-1.70;99.90
20366;DHT22;10341;49.894;8.822;2024-01-10T09:58:45;-1.60;99.90
20366;DHT22;10341;49.894;8.822;2024-01-10T10:04:05;-1.80;99.90
20366;DHT22;10341;49.894;8.822;2024-01-10T10:09:28;-1.70;99.90
20366;DHT22;10341;49.894;8.822;2024-01-10T10:14:49;-1.70;99.90
20366;DHT22;10341;49.894;8.822;2024-01-10T10:20:08;-1.70;99.90
20366;DHT22;10341;49.894;8.822;2024-01-10T10:25:42;-1.80;99.90
20366;DHT22;10341;49.894;8.822;2024-01-10T10:31:02;-1.80;99.90
20366;DHT22;10341;49.894;8.822;2024-01-10T10:36:21;-1.60;99.90
20366;DHT22;10341;49.894;8.822;2024-01-10T10:41:42;-1.50;99.90
20366;DHT22;10341;49.894;8.822;2024-01-10T10:47:05;-1.30;99.90
20366;DHT22;10341;49.894;8.822;2024-01-10T10:52:28;-1.20;99.90
20366;DHT22;10341;49.894;8.822;2024-01-10T10:57:48;-0.80;99.90
20366;DHT22;10341;49.894;8.822;2024-01-10T11:03:10;-0.40;99.90
20366;DHT22;10341;49.894;8.822;2024-01-10T11:08:44;-0.10;99.90
20366;DHT22;10341;49.894;8.822;2024-01-10T11:14:30;-0.10;99.90
20366;DHT22;10341;49.894;8.822;2024-01-10T11:20:10;0.10;99.90
20366;DHT22;10341;49.894;8.822;2024-01-10T11:25:35;0.30;99.90
20366;DHT22;10341;49.894;8.822;2024-01-10T11:30:55;0.60;99.90
20366;DHT22;10341;49.894;8.822;2024-01-10T11:36:17;1.00;99.90
20366;DHT22;10341;49.894;8.822;2024-01-10T11:41:39;1.40;99.90
20366;DHT22;10341;49.894;8.822;2024-01-10T11:46:59;1.40;99.90
20366;DHT22;10341;49.894;8.822;2024-01-10T11:52:21;1.50;99.90
20366;DHT22;10341;49.894;8.822;2024-01-10T11:57:41;1.70;99.90
20366;DHT22;10341;49.894;8.822;2024-01-10T12:03:00;2.60;99.90
20366;DHT22;10341;49.894;8.822;2024-01-10T12:08:19;3.60;99.90
20366;DHT22;10341;49.894;8.822;2024-01-10T12:13:39;5.60;98.60
20366;DHT22;10341;49.894;8.822;2024-01-10T12:18:59;7.90;94.90
20366;DHT22;10341;49.894;8.822;2024-01-10T12:24:18;9.10;89.60
20366;DHT22;10341;49.894;8.822;2024-01-10T12:29:38;6.80;90.10
20366;DHT22;10341;49.894;8.822;2024-01-10T12:35:05;5.10;92.50
20366;DHT22;10341;49.894;8.822;2024-01-10T12:40:25;3.20;95.70
20366;DHT22;10341;49.894;8.822;2024-01-10T12:45:45;2.50;96.60
20366;DHT22;10341;49.894;8.822;2024-01-10T12:51:05;1.90;98.20
20366;DHT22;10341;49.894;8.822;2024-01-10T12:56:26;1.70;99.00
20366;DHT22;10341;49.894;8.822;2024-01-10T13:01:46;1.40;99.30
20366;DHT22;10341;49.894;8.822;2024-01-10T13:07:05;1.30;99.90
20366;DHT22;10341;49.894;8.822;2024-01-10T13:12:25;1.20;99.90
20366;DHT22;10341;49.894;8.822;2024-01-10T13:17:44;1.20;99.90
20366;DHT22;10341;49.894;8.822;2024-01-10T13:23:03;1.00;99.90
20366;DHT22;10341;49.894;8.822;2024-01-10T13:28:22;1.00;99.90
20366;DHT22;10341;49.894;8.822;2024-01-10T13:33:41;0.80;99.90
20366;DHT22;10341;49.894;8.822;2024-01-10T13:39:01;0.80;99.90
20366;DHT22;10341;49.894;8.822;2024-01-10T13:44:23;0.80;99.90
20366;DHT22;10341;49.894;8.822;2024-01-10T13:49:42;0.80;99.90
20366;DHT22;10341;49.894;8.822;2024-01-10T13:55:02;0.70;99.90
20366;DHT22;10341;49.894;8.822;2024-01-10T14:00:24;0.70;99.90
20366;DHT22;10341;49.894;8.822;2024-01-10T14:05:44;0.80;99.90
20366;DHT22;10341;49.894;8.822;2024-01-10T14:11:04;0.80;99.90
20366;DHT22;10341;49.894;8.822;2024-01-10T14:16:24;0.80;99.90
20366;DHT22;10341;49.894;8.822;2024-01-10T14:21:43;0.70;99.90
20366;DHT22;10341;49.894;8.822;2024-01-10T14:27:03;0.70;99.90
20366;DHT22;10341;49.894;8.822;2024-01-10T14:32:22;0.70;99.90
20366;DHT22;10341;49.894;8.822;2024-01-10T14:37:41;0.60;99.90
20366;DHT22;10341;49.894;8.822;2024-01-10T14:43:01;0.60;99.90
20366;DHT22;10341;49.894;8.822;2024-01-10T14:48:20;0.50;99.90
20366;DHT22;10341;49.894;8.822;2024-01-10T14:53:40;0.40;99.90
20366;DHT22;10341;49.894;8.822;2024-01-10T14:58:59;0.30;99.90
20366;DHT22;10341;49.894;8.822;2024-01-10T15:04:19;0.20;99.90
20366;DHT22;10341;49.894;8.822;2024-01-10T15:09:38;0.10;99.90
20366;DHT22;10341;49.894;8.822;2024-01-10T15:14:57;0.00;99.90
20366;DHT22;10341;49.894;8.822;2024-01-10T15:20:20;-0.10;99.90
20366;DHT22;10341;49.894;8.822;2024-01-10T15:25:39;-0.20;99.90
20366;DHT22;10341;49.894;8.822;2024-01-10T15:30:59;-0.30;99.90
20366;DHT22;10341;49.894;8.822;2024-01-10T15:36:20;-0.50;99.90
20366;DHT22;10341;49.894;8.822;2024-01-10T15:41:39;-0.60;99.90
20366;DHT22;10341;49.894;8.822;2024-01-10T15:46:59;-0.70;99.90
20366;DHT22;10341;49.894;8.822;2024-01-10T15:52:18;-0.80;99.90
20366;DHT22;10341;49.894;8.822;2024-01-10T15:57:45;-1.00;99.90
20366;DHT22;10341;49.894;8.822;2024-01-10T16:03:05;-1.20;99.90
20366;DHT22;10341;49.894;8.822;2024-01-10T16:08:26;-1.40;99.90
20366;DHT22;10341;49.894;8.822;2024-01-10T16:13:44;-1.50;99.90
20366;DHT22;10341;49.894;8.822;2024-01-10T16:19:04;-1.70;99.90
20366;DHT22;10341;49.894;8.822;2024-01-10T16:24:24;-1.90;99.90
20366;DHT22;10341;49.894;8.822;2024-01-10T16:29:44;-2.00;99.90
20366;DHT22;10341;49.894;8.822;2024-01-10T16:35:03;-2.20;99.90
20366;DHT22;10341;49.894;8.822;2024-01-10T16:40:24;-2.40;99.90
20366;DHT22;10341;49.894;8.822;2024-01-10T16:45:43;-2.60;99.90
20366;DHT22;10341;49.894;8.822;2024-01-10T16:51:03;-2.70;99.90
20366;DHT22;10341;49.894;8.822;2024-01-10T16:56:23;-2.80;99.90
20366;DHT22;10341;49.894;8.822;2024-01-10T17:01:43;-2.90;99.90
20366;DHT22;10341;49.894;8.822;2024-01-10T17:07:02;-3.10;99.90
20366;DHT22;10341;49.894;8.822;2024-01-10T17:12:22;-3.20;99.90
20366;DHT22;10341;49.894;8.822;2024-01-10T17:17:41;-3.30;99.90
20366;DHT22;10341;49.894;8.822;2024-01-10T17:23:01;-3.40;99.90
20366;DHT22;10341;49.894;8.822;2024-01-10T17:28:21;-3.50;99.90
20366;DHT22;10341;49.894;8.822;2024-01-10T17:33:41;-3.60;99.90
20366;DHT22;10341;49.894;8.822;2024-01-10T17:39:01;-3.70;99.90
20366;DHT22;10341;49.894;8.822;2024-01-10T17:44:21;-3.80;99.90
20366;DHT22;10341;49.894;8.822;2024-01-10T17:49:40;-3.80;99.90
20366;DHT22;10341;49.894;8.822;2024-01-10T17:55:00;-3.80;99.90
20366;DHT22;10341;49.894;8.822;2024-01-10T18:00:19;-3.90;99.90
20366;DHT22;10341;49.894;8.822;2024-01-10T18:05:42;-4.00;99.90
20366;DHT22;10341;49.894;8.822;2024-01-10T18:11:02;-4.10;99.90
20366;DHT22;10341;49.894;8.822;2024-01-10T18:16:22;-4.20;99.90
20366;DHT22;10341;49.894;8.822;2024-01-10T18:21:41;-4.30;99.90
20366;DHT22;10341;49.894;8.822;2024-01-10T18:27:01;-4.40;99.90
20366;DHT22;10341;49.894;8.822;2024-01-10T18:32:20;-4.40;99.90
20366;DHT22;10341;49.894;8.822;2024-01-10T18:37:39;-4.50;99.90
20366;DHT22;10341;49.894;8.822;2024-01-10T18:42:59;-4.60;99.90
20366;DHT22;10341;49.894;8.822;2024-01-10T18:48:19;-4.70;99.90
20366;DHT22;10341;49.894;8.822;2024-01-10T18:53:39;-4.80;99.90
20366;DHT22;10341;49.894;8.822;2024-01-10T18:58:58;-4.80;99.90
20366;DHT22;10341;49.894;8.822;2024-01-10T19:04:18;-4.90;99.90
20366;DHT22;10341;49.894;8.822;2024-01-10T19:09:38;-5.00;99.90
20366;DHT22;10341;49.894;8.822;2024-01-10T19:14:58;-4.70;99.90
20366;DHT22;10341;49.894;8.822;2024-01-10T19:20:17;-5.20;99.90
20366;DHT22;10341;49.894;8.822;2024-01-10T19:25:37;-5.20;99.90
20366;DHT22;10341;49.894;8.822;2024-01-10T19:30:57;-5.20;99.90
20366;DHT22;10341;49.894;8.822;2024-01-10T19:36:18;-5.30;99.90
20366;DHT22;10341;49.894;8.822;2024-01-10T19:41:37;-5.30;99.90
20366;DHT22;10341;49.894;8.822;2024-01-10T19:46:57;-5.30;99.90
20366;DHT22;10341;49.894;8.822;2024-01-10T19:52:16;-5.40;99.90
20366;DHT22;10341;49.894;8.822;2024-01-10T19:57:36;-5.40;99.90
20366;DHT22;10341;49.894;8.822;2024-01-10T20:02:56;-5.50;99.90
20366;DHT22;10341;49.894;8.822;2024-01-10T20:08:15;-5.60;99.90
20366;DHT22;10341;49.894;8.822;2024-01-10T20:13:35;-5.60;99.90
20366;DHT22;10341;49.894;8.822;2024-01-10T20:18:55;-5.70;99.90
20366;DHT22;10341;49.894;8.822;2024-01-10T20:24:14;-5.70;99.90
20366;DHT22;10341;49.894;8.822;2024-01-10T20:29:33;-5.80;99.90
20366;DHT22;10341;49.894;8.822;2024-01-10T20:34:53;-5.80;99.90
20366;DHT22;10341;49.894;8.822;2024-01-10T20:40:13;-5.90;99.90
20366;DHT22;10341;49.894;8.822;2024-01-10T20:45:32;-5.90;99.90
20366;DHT22;10341;49.894;8.822;2024-01-10T20:50:52;-5.90;99.90
20366;DHT22;10341;49.894;8.822;2024-01-10T20:56:13;-5.90;99.90
20366;DHT22;10341;49.894;8.822;2024-01-10T21:01:32;-6.00;99.90
20366;DHT22;10341;49.894;8.822;2024-01-10T21:06:51;-6.00;99.90
20366;DHT22;10341;49.894;8.822;2024-01-10T21:12:15;-6.10;99.90
20366;DHT22;10341;49.894;8.822;2024-01-10T21:17:35;-6.10;99.90
20366;DHT22;10341;49.894;8.822;2024-01-10T21:22:54;-6.10;99.90
20366;DHT22;10341;49.894;8.822;2024-01-10T21:28:14;-6.10;99.90
20366;DHT22;10341;49.894;8.822;2024-01-10T21:33:33;-6.10;99.90
20366;DHT22;10341;49.894;8.822;2024-01-10T21:38:53;-6.10;99.90
20366;DHT22;10341;49.894;8.822;2024-01-10T21:44:12;-6.10;99.90
20366;DHT22;10341;49.894;8.822;2024-01-10T21:49:32;-6.20;99.90
20366;DHT22;10341;49.894;8.822;2024-01-10T21:54:51;-6.30;99.90
20366;DHT22;10341;49.894;8.822;2024-01-10T22:00:12;-6.20;99.90
20366;DHT22;10341;49.894;8.822;2024-01-10T22:05:31;-6.20;99.90
20366;DHT22;10341;49.894;8.822;2024-01-10T22:10:51;-6.30;99.90
20366;DHT22;10341;49.894;8.822;2024-01-10T22:16:10;-6.30;99.90
20366;DHT22;10341;49.894;8.822;2024-01-10T22:21:30;-6.40;99.90
20366;DHT22;10341;49.894;8.822;2024-01-10T22:26:49;-6.40;99.90
20366;DHT22;10341;49.894;8.822;2024-01-10T22:32:09;-6.50;99.90
20366;DHT22;10341;49.894;8.822;2024-01-10T22:37:28;-6.50;99.90
20366;DHT22;10341;49.894;8.822;2024-01-10T22:42:48;-6.50;99.90
20366;DHT22;10341;49.894;8.822;2024-01-10T22:48:07;-6.50;99.90
20366;DHT22;10341;49.894;8.822;2024-01-10T22:53:26;-6.60;99.90
20366;DHT22;10341;49.894;8.822;2024-01-10T22:58:45;-6.60;99.90
20366;DHT22;10341;49.894;8.822;2024-01-10T23:04:06;-6.60;99.90
20366;DHT22;10341;49.894;8.822;2024-01-10T23:09:26;-6.60;99.90
20366;DHT22;10341;49.894;8.822;2024-01-10T23:14:45;-6.60;99.90
20366;DHT22;10341;49.894;8.822;2024-01-10T23:20:05;-6.70;99.90
20366;DHT22;10341;49.894;8.822;2024-01-10T23:25:25;-6.70;99.90
20366;DHT22;10341;49.894;8.822;2024-01-10T23:30:45;-6.80;99.90
20366;DHT22;10341;49.894;8.822;2024-01-10T23:36:05;-6.80;99.90
20366;DHT22;10341;49.894;8.822;2024-01-10T23:41:25;-6.80;99.90
20366;DHT22;10341;49.894;8.822;2024-01-10T23:46:44;-6.80;99.90
20366;DHT22;10341;49.894;8.822;2024-01-10T23:52:04;-6.80;99.90
20366;DHT22;10341;49.894;8.822;2024-01-10T23:57:23;-6.90;99.90
